Proud — 9HWA9 — position and weather

sailwx.info

Track history (hours):
 
Tides and Currents Weather Stations Pressure Air Temp Water Temp Dewpoint Dewpoint Depression Visibility Wind Speed Wind Dir Waves Ship Positions

Proud

Last reported at 2017-Jun-26 09:14 UTC. Time now 2017-Jun-29 12:29 UTC.
Position N 39°56' E 025°57'.

Length 292 m; draft 9.3 m.

Type: Cargo ship. MMSI: 249619000.

Date/timePositionNaut miles runAvg speedWind from/ knotsBaromVisibWave heightAir tempDewpointWater temp
2017-Jun-26 09:14N 39°56' E 025°57'2 8.6
2017-Jun-26 09:00N 39°56' E 025°55'3 6.7
2017-Jun-26 08:29N 39°54' E 025°51'3 6.5
2017-Jun-26 08:00N 39°53' E 025°47'6 4.9
2017-Jun-26 06:51N 39°53' E 025°40'2 3.8
2017-Jun-26 06:24N 39°53' E 025°38'1 2.3
2017-Jun-26 06:00N 39°53' E 025°36'1 1.3
2017-Jun-26 05:30N 39°53' E 025°37'1 1.2
2017-Jun-26 05:00N 39°53' E 025°38'0 1.0
2017-Jun-26 04:30N 39°53' E 025°37'1 1.0
2017-Jun-26 04:00N 39°53' E 025°38'1 1.4
2017-Jun-26 03:30N 39°53' E 025°39'1 1.6
2017-Jun-26 03:00N 39°53' E 025°40'1 2.9
2017-Jun-26 02:30N 39°52' E 025°41'3 6.4
2017-Jun-26 02:00N 39°52' E 025°46'4 8.1
2017-Jun-26 01:30N 39°52' E 025°51'3 5.4
2017-Jun-26 00:56N 39°49' E 025°50'11712.7
2017-Jun-25 15:44N 37°56' E 025°14'313.9
2017-Jun-25 15:30N 37°54' E 025°17'713.9
2017-Jun-25 15:00N 37°49' E 025°23'1413.7
2017-Jun-25 14:00N 37°39' E 025°35'713.7
2017-Jun-25 13:30N 37°34' E 025°41'917.5
2017-Jun-25 12:58N 37°27' E 025°48'4 9.0
2017-Jun-25 12:30N 37°23' E 025°52'29412.3
2017-Jun-24 12:40N 35°39' E 031°35'213.1
2017-Jun-24 12:31N 35°39' E 031°37'713.3
2017-Jun-24 12:01N 35°39' E 031°45'713.3
2017-Jun-24 11:30N 35°39' E 031°53'713.5
2017-Jun-24 11:00N 35°39' E 032°02'  
2017-Jun-19 02:25N 33°02' E 033°33'1513.1
2017-Jun-19 01:15N 32°49' E 033°24'4013.4
2017-Jun-18 22:15N 32°13' E 033°02'313.3
2017-Jun-18 22:00N 32°10' E 033°00'613.1
2017-Jun-18 21:30N 32°05' E 032°57'1513.0
2017-Jun-18 20:23N 31°52' E 032°48'613.1
2017-Jun-18 19:57N 31°47' E 032°45'913.0
2017-Jun-18 19:14N 31°42' E 032°36'313.1
2017-Jun-18 19:00N 31°40' E 032°33'612.9
2017-Jun-18 18:30N 31°37' E 032°27'1410.4
2017-Jun-18 17:10N 31°23' E 032°23'311.5
2017-Jun-18 16:54N 31°20' E 032°23'610.0
2017-Jun-18 16:18N 31°14' E 032°21'2 6.7
2017-Jun-18 16:00N 31°12' E 032°20'5 9.1
2017-Jun-18 15:25N 31°07' E 032°19'4 9.2
2017-Jun-18 15:00N 31°03' E 032°19'9 9.2
2017-Jun-18 14:00N 30°54' E 032°19'  
Track history (hours):
 
Tides and Currents Weather Stations Pressure Air Temp Water Temp Dewpoint Dewpoint Depression Visibility Wind Speed Wind Dir Waves Ship Positions

Proud

Last reported at 2017-Jun-26 09:14 UTC. Time now 2017-Jun-29 12:29 UTC.
Position N 39°56' E 025°57'.

Length 292 m; draft 9.3 m.

Type: Cargo ship. MMSI: 249619000.

Date/timePositionNaut miles runAvg speedWind from/ knotsBaromVisibWave heightAir tempDewpointWater temp
2017-Jun-26 09:14N 39°56' E 025°57'2 8.6
2017-Jun-26 09:00N 39°56' E 025°55'3 6.7
2017-Jun-26 08:29N 39°54' E 025°51'3 6.5
2017-Jun-26 08:00N 39°53' E 025°47'6 4.9
2017-Jun-26 06:51N 39°53' E 025°40'2 3.8
2017-Jun-26 06:24N 39°53' E 025°38'1 2.3
2017-Jun-26 06:00N 39°53' E 025°36'1 1.3
2017-Jun-26 05:30N 39°53' E 025°37'1 1.2
2017-Jun-26 05:00N 39°53' E 025°38'0 1.0
2017-Jun-26 04:30N 39°53' E 025°37'1 1.0
2017-Jun-26 04:00N 39°53' E 025°38'1 1.4
2017-Jun-26 03:30N 39°53' E 025°39'1 1.6
2017-Jun-26 03:00N 39°53' E 025°40'1 2.9
2017-Jun-26 02:30N 39°52' E 025°41'3 6.4
2017-Jun-26 02:00N 39°52' E 025°46'4 8.1
2017-Jun-26 01:30N 39°52' E 025°51'3 5.4
2017-Jun-26 00:56N 39°49' E 025°50'11712.7
2017-Jun-25 15:44N 37°56' E 025°14'313.9
2017-Jun-25 15:30N 37°54' E 025°17'713.9
2017-Jun-25 15:00N 37°49' E 025°23'1413.7
2017-Jun-25 14:00N 37°39' E 025°35'713.7
2017-Jun-25 13:30N 37°34' E 025°41'917.5
2017-Jun-25 12:58N 37°27' E 025°48'4 9.0
2017-Jun-25 12:30N 37°23' E 025°52'29412.3
2017-Jun-24 12:40N 35°39' E 031°35'213.1
2017-Jun-24 12:31N 35°39' E 031°37'713.3
2017-Jun-24 12:01N 35°39' E 031°45'713.3
2017-Jun-24 11:30N 35°39' E 031°53'713.5
2017-Jun-24 11:00N 35°39' E 032°02'  
2017-Jun-19 02:25N 33°02' E 033°33'1513.1
2017-Jun-19 01:15N 32°49' E 033°24'4013.4
2017-Jun-18 22:15N 32°13' E 033°02'313.3
2017-Jun-18 22:00N 32°10' E 033°00'613.1
2017-Jun-18 21:30N 32°05' E 032°57'1513.0
2017-Jun-18 20:23N 31°52' E 032°48'613.1
2017-Jun-18 19:57N 31°47' E 032°45'913.0
2017-Jun-18 19:14N 31°42' E 032°36'313.1
2017-Jun-18 19:00N 31°40' E 032°33'612.9
2017-Jun-18 18:30N 31°37' E 032°27'1410.4
2017-Jun-18 17:10N 31°23' E 032°23'311.5
2017-Jun-18 16:54N 31°20' E 032°23'610.0
2017-Jun-18 16:18N 31°14' E 032°21'2 6.7
2017-Jun-18 16:00N 31°12' E 032°20'5 9.1
2017-Jun-18 15:25N 31°07' E 032°19'4 9.2
2017-Jun-18 15:00N 31°03' E 032°19'9 9.2
2017-Jun-18 14:00N 30°54' E 032°19'  

Dump ship's entire track history